createdAt,value
2022-11-28T00:00:53.109Z,38.10
2022-11-28T00:03:25.824Z,37.80
2022-11-28T00:06:05.540Z,36.67
2022-11-28T00:08:38.420Z,36.65
2022-11-28T00:11:13.018Z,35.00
2022-11-28T00:13:45.957Z,33.90
2022-11-28T00:16:22.479Z,37.35
2022-11-28T00:18:56.157Z,36.83
2022-11-28T00:21:29.139Z,37.47
2022-11-28T00:24:01.933Z,35.40
2022-11-28T00:26:38.744Z,35.17
2022-11-28T00:29:11.761Z,35.58
2022-11-28T00:31:45.041Z,36.28
2022-11-28T00:34:17.664Z,37.80
2022-11-28T00:36:50.368Z,37.50
2022-11-28T00:39:23.127Z,34.58
2022-11-28T00:41:55.739Z,35.90
2022-11-28T00:44:28.293Z,35.17
2022-11-28T00:47:00.860Z,36.58
2022-11-28T00:49:33.627Z,35.33
2022-11-28T00:52:06.148Z,36.90
2022-11-28T00:54:38.810Z,36.17
2022-11-28T00:57:11.413Z,35.60
2022-11-28T00:59:43.876Z,35.30
2022-11-28T01:02:16.778Z,36.08
2022-11-28T01:04:49.277Z,36.80
2022-11-28T01:07:21.842Z,36.90
2022-11-28T01:09:55.454Z,35.88
2022-11-28T01:12:28.065Z,34.50
2022-11-28T01:15:00.983Z,34.90
2022-11-28T01:17:33.617Z,36.50
2022-11-28T01:20:08.594Z,35.35
2022-11-28T01:22:41.208Z,36.08
2022-11-28T01:25:13.749Z,35.45
2022-11-28T01:27:46.206Z,36.53
2022-11-28T01:30:19.303Z,35.03
2022-11-28T01:32:51.769Z,33.92
2022-11-28T01:35:24.240Z,33.67
2022-11-28T01:37:56.735Z,34.00
2022-11-28T01:40:29.238Z,33.58
2022-11-28T01:43:01.838Z,32.85
2022-11-28T01:45:34.568Z,32.97
2022-11-28T01:48:07.870Z,32.28
2022-11-28T01:50:42.405Z,31.67
2022-11-28T01:53:15.691Z,32.78
2022-11-28T01:55:58.263Z,32.45
2022-11-28T01:58:33.841Z,31.88
2022-11-28T02:01:08.003Z,31.52
2022-11-28T02:03:45.077Z,31.88
2022-11-28T02:06:20.862Z,31.88
2022-11-28T02:08:54.984Z,29.48
2022-11-28T02:11:46.718Z,31.20
2022-11-28T02:14:50.061Z,30.65
2022-11-28T02:17:45.119Z,30.77
2022-11-28T02:20:29.029Z,31.33
2022-11-28T02:23:08.782Z,31.98
2022-11-28T02:26:04.961Z,30.70
2022-11-28T02:28:58.441Z,32.20
2022-11-28T02:31:56.273Z,30.60
2022-11-28T02:34:35.265Z,30.80
2022-11-28T02:37:27.120Z,30.77
2022-11-28T02:40:11.548Z,31.58
2022-11-28T02:42:56.922Z,31.38
2022-11-28T02:45:33.835Z,29.83
2022-11-28T02:48:14.419Z,29.42
2022-11-28T02:51:03.038Z,29.67
2022-11-28T02:53:36.996Z,29.13
2022-11-28T02:56:11.675Z,30.00
2022-11-28T02:58:44.233Z,29.65
2022-11-28T03:01:23.804Z,29.20
2022-11-28T03:04:04.306Z,30.33
2022-11-28T03:07:07.641Z,31.55
2022-11-28T03:09:50.905Z,28.38
2022-11-28T03:12:46.290Z,28.27
2022-11-28T03:15:27.031Z,29.05
2022-11-28T03:18:20.140Z,28.45
2022-11-28T03:21:01.119Z,27.52
2022-11-28T03:23:39.186Z,27.60
2022-11-28T03:26:26.781Z,27.50
2022-11-28T03:29:19.713Z,26.85
2022-11-28T03:31:58.575Z,26.08
2022-11-28T03:34:35.375Z,25.30
2022-11-28T03:37:14.478Z,23.90
2022-11-28T03:39:54.805Z,24.70
2022-11-28T03:42:31.502Z,24.73
2022-11-28T03:45:12.762Z,24.27
2022-11-28T03:47:50.259Z,23.75
2022-11-28T03:50:32.976Z,23.98
2022-11-28T03:53:12.291Z,24.42
2022-11-28T03:55:54.053Z,23.75
2022-11-28T03:58:36.181Z,23.65
2022-11-28T04:01:28.095Z,23.33
2022-11-28T04:04:23.814Z,21.95
2022-11-28T04:07:04.982Z,23.10
2022-11-28T04:09:43.045Z,23.02
2022-11-28T04:12:21.894Z,22.73
2022-11-28T04:15:02.902Z,22.25
2022-11-28T04:17:46.165Z,22.20
2022-11-28T04:20:37.205Z,23.17
2022-11-28T04:23:15.398Z,22.33
2022-11-28T04:25:54.390Z,23.58
2022-11-28T04:28:30.037Z,23.63
2022-11-28T04:31:06.132Z,22.55
2022-11-28T04:33:44.439Z,23.00
2022-11-28T04:36:20.556Z,21.77
2022-11-28T04:38:56.595Z,21.98
2022-11-28T04:41:36.582Z,22.80
2022-11-28T04:44:17.293Z,22.90
2022-11-28T04:46:54.796Z,23.10
2022-11-28T04:49:29.716Z,22.75
2022-11-28T04:52:07.927Z,23.55
2022-11-28T04:54:55.942Z,22.48
2022-11-28T04:57:39.927Z,22.10
2022-11-28T05:00:18.223Z,22.98
2022-11-28T05:02:53.881Z,23.63
2022-11-28T05:05:28.732Z,23.55
2022-11-28T05:08:01.300Z,22.60
2022-11-28T05:10:34.897Z,22.67
2022-11-28T05:13:07.501Z,21.30
2022-11-28T05:15:40.231Z,23.83
2022-11-28T05:18:13.139Z,22.70
2022-11-28T05:20:45.774Z,23.50
2022-11-28T05:23:18.579Z,23.60
2022-11-28T05:25:51.124Z,23.15
2022-11-28T05:28:23.690Z,22.65
2022-11-28T05:30:58.607Z,23.20
2022-11-28T05:33:31.903Z,22.63
2022-11-28T05:36:11.359Z,22.90
2022-11-28T05:38:46.119Z,22.95
2022-11-28T05:41:20.950Z,23.88
2022-11-28T05:43:53.974Z,24.80
2022-11-28T05:46:27.527Z,23.80
2022-11-28T05:49:00.141Z,23.30
2022-11-28T05:51:32.915Z,23.90
2022-11-28T05:54:06.312Z,23.05
2022-11-28T05:56:42.328Z,23.73
2022-11-28T05:59:15.528Z,24.45
2022-11-28T06:01:48.103Z,25.08
2022-11-28T06:04:20.728Z,24.60
2022-11-28T06:06:53.597Z,24.83
2022-11-28T06:09:26.418Z,24.52
2022-11-28T06:11:58.898Z,24.55
2022-11-28T06:14:31.434Z,24.92
2022-11-28T06:17:03.995Z,24.88
2022-11-28T06:19:36.713Z,26.20
2022-11-28T06:22:10.858Z,26.85
2022-11-28T06:24:43.393Z,25.53
2022-11-28T06:27:15.969Z,27.27
2022-11-28T06:29:48.565Z,30.98
2022-11-28T06:32:22.253Z,35.72
2022-11-28T06:34:55.074Z,33.45
2022-11-28T06:37:28.435Z,25.02
2022-11-28T06:40:01.138Z,25.88
2022-11-28T06:42:36.511Z,26.05
2022-11-28T06:47:42.585Z,38.22
2022-11-28T06:50:15.451Z,33.10
2022-11-28T06:52:48.083Z,30.55
2022-11-28T06:55:20.774Z,29.55
2022-11-28T06:57:53.354Z,29.55
2022-11-28T07:00:25.994Z,26.40
2022-11-28T07:02:58.920Z,29.20
2022-11-28T07:05:31.483Z,26.85
2022-11-28T07:08:04.223Z,26.13
2022-11-28T07:10:37.188Z,25.65
2022-11-28T07:13:09.922Z,25.95
2022-11-28T07:15:53.160Z,26.90
2022-11-28T07:18:25.641Z,25.58
2022-11-28T07:20:58.241Z,27.05
2022-11-28T07:23:30.916Z,25.92
2022-11-28T07:26:04.752Z,26.85
2022-11-28T07:28:37.362Z,25.05
2022-11-28T07:31:13.348Z,24.58
2022-11-28T07:33:49.721Z,24.65
2022-11-28T07:36:25.334Z,23.85
2022-11-28T07:39:00.970Z,25.98
2022-11-28T07:41:33.408Z,26.52
2022-11-28T07:44:06.141Z,25.60
2022-11-28T07:46:39.763Z,26.38
2022-11-28T07:49:13.955Z,26.83
2022-11-28T07:51:46.662Z,18.13
2022-11-28T07:54:19.433Z,26.73
2022-11-28T07:59:45.547Z,25.63
2022-11-28T08:02:19.083Z,29.20
2022-11-28T08:04:55.152Z,26.70
2022-11-28T08:07:28.082Z,24.75
2022-11-28T08:10:00.758Z,24.45
2022-11-28T08:12:33.423Z,23.45
2022-11-28T08:15:06.566Z,23.98
2022-11-28T08:17:40.110Z,24.52
2022-11-28T08:20:12.957Z,22.25
2022-11-28T08:22:45.649Z,23.30
2022-11-28T08:25:18.285Z,23.55
2022-11-28T08:27:50.836Z,23.23
2022-11-28T08:30:23.562Z,27.15
2022-11-28T08:32:56.253Z,28.77
2022-11-28T08:35:29.610Z,25.98
2022-11-28T08:38:02.379Z,25.33
2022-11-28T08:40:35.204Z,27.48
2022-11-28T08:43:08.439Z,24.48
2022-11-28T08:45:41.139Z,23.80
2022-11-28T08:48:13.951Z,25.52
2022-11-28T08:50:48.384Z,24.38
2022-11-28T08:53:21.005Z,24.40
2022-11-28T08:55:53.950Z,26.15
2022-11-28T08:58:26.920Z,26.20
2022-11-28T09:01:00.489Z,26.42
2022-11-28T09:03:33.575Z,24.60
2022-11-28T09:06:07.960Z,17.40
2022-11-28T09:08:40.840Z,25.15
2022-11-28T09:11:17.726Z,23.70
2022-11-28T09:13:51.494Z,23.45
2022-11-28T09:16:25.410Z,22.95
2022-11-28T09:18:59.763Z,24.17
2022-11-28T09:21:32.321Z,25.80
2022-11-28T09:24:05.750Z,25.52
2022-11-28T09:26:38.601Z,24.95
2022-11-28T09:29:11.278Z,24.98
2022-11-28T09:31:47.335Z,24.77
2022-11-28T09:34:22.001Z,42.10
2022-11-28T09:36:54.859Z,26.35
2022-11-28T09:39:32.743Z,37.47
2022-11-28T09:42:38.132Z,34.67
2022-11-28T09:45:27.372Z,24.65
2022-11-28T09:48:24.145Z,22.88
2022-11-28T09:51:07.082Z,23.88
2022-11-28T09:53:48.089Z,20.58
2022-11-28T09:56:22.853Z,23.92
2022-11-28T09:58:59.300Z,24.08
2022-11-28T10:01:40.199Z,23.80
2022-11-28T10:04:36.489Z,21.92
2022-11-28T10:07:20.017Z,22.35
2022-11-28T10:10:08.747Z,25.48
2022-11-28T10:12:51.179Z,22.92
2022-11-28T10:15:35.208Z,24.48
2022-11-28T10:18:11.455Z,23.33
2022-11-28T10:20:49.289Z,21.90
2022-11-28T10:23:22.849Z,22.02
2022-11-28T10:26:01.446Z,25.02
2022-11-28T10:28:37.756Z,26.90
2022-11-28T10:31:26.294Z,33.92
2022-11-28T10:34:04.022Z,23.52
2022-11-28T10:36:58.333Z,22.17
2022-11-28T10:39:33.177Z,20.10
2022-11-28T10:42:20.809Z,22.08
2022-11-28T10:45:17.734Z,21.23
2022-11-28T10:48:07.582Z,22.38
2022-11-28T10:50:57.457Z,22.60
2022-11-28T10:53:50.412Z,23.77
2022-11-28T10:56:34.683Z,34.20
2022-11-28T10:59:17.804Z,26.23
2022-11-28T11:01:52.856Z,27.92
2022-11-28T11:04:27.984Z,29.35
2022-11-28T11:07:16.450Z,33.75
2022-11-28T11:09:54.211Z,33.10
2022-11-28T11:12:32.936Z,40.97
2022-11-28T11:15:31.205Z,35.63
2022-11-28T11:18:21.219Z,35.05
2022-11-28T11:21:09.763Z,37.63
2022-11-28T11:23:43.913Z,36.40
2022-11-28T11:26:29.035Z,37.95
2022-11-28T11:29:02.972Z,40.95
2022-11-28T11:31:50.377Z,41.30
2022-11-28T11:34:24.784Z,46.00
2022-11-28T11:37:19.852Z,45.10
2022-11-28T11:39:55.413Z,45.65
2022-11-28T11:42:31.503Z,48.05
2022-11-28T11:45:30.109Z,47.47
2022-11-28T11:48:04.579Z,45.60
2022-11-28T11:50:44.563Z,46.60
2022-11-28T11:53:20.083Z,48.38
2022-11-28T11:58:38.919Z,49.35
2022-11-28T12:01:14.073Z,48.78
2022-11-28T12:04:23.635Z,53.08
2022-11-28T12:06:59.689Z,49.40
2022-11-28T12:09:43.774Z,46.50
2022-11-28T12:12:23.674Z,46.17
2022-11-28T12:14:56.629Z,48.15
2022-11-28T12:18:00.653Z,46.38
2022-11-28T12:21:03.113Z,49.58
2022-11-28T12:23:43.137Z,48.50
2022-11-28T12:26:33.289Z,49.00
2022-11-28T12:29:26.529Z,48.33
2022-11-28T12:32:18.728Z,46.50
2022-11-28T12:34:53.497Z,49.13
2022-11-28T12:38:08.983Z,45.72
2022-11-28T12:40:51.572Z,44.20
2022-11-28T12:43:48.697Z,49.15
2022-11-28T12:46:22.477Z,48.00
2022-11-28T12:48:58.888Z,48.03
2022-11-28T12:51:46.018Z,47.40
2022-11-28T12:54:50.616Z,45.90
2022-11-28T12:57:46.626Z,47.20
2022-11-28T13:00:27.123Z,44.97
2022-11-28T13:03:19.984Z,43.25
2022-11-28T13:06:07.459Z,46.38
2022-11-28T13:09:00.492Z,44.95
2022-11-28T13:11:49.827Z,44.50
2022-11-28T13:14:54.552Z,43.83
2022-11-28T13:17:51.191Z,46.58
2022-11-28T13:20:33.565Z,46.20
2022-11-28T13:23:14.852Z,44.75
2022-11-28T13:25:57.741Z,44.10
2022-11-28T13:28:45.707Z,43.88
2022-11-28T13:31:41.003Z,46.10
2022-11-28T13:34:18.115Z,45.15
2022-11-28T13:39:55.773Z,46.20
2022-11-28T13:43:03.460Z,47.03
2022-11-28T13:45:33.079Z,46.65
2022-11-28T13:51:33.792Z,46.22
2022-11-28T13:54:23.890Z,45.50
2022-11-28T13:57:21.629Z,46.65
2022-11-28T13:59:58.673Z,47.70
2022-11-28T14:02:53.440Z,46.30
2022-11-28T14:05:32.740Z,44.78
2022-11-28T14:08:07.583Z,45.22
2022-11-28T14:11:01.957Z,45.78
2022-11-28T14:14:06.472Z,46.40
2022-11-28T14:17:03.864Z,47.83
2022-11-28T14:19:54.136Z,48.55
2022-11-28T14:22:43.716Z,50.25
2022-11-28T14:25:23.279Z,50.25
2022-11-28T14:28:01.740Z,53.17
2022-11-28T14:30:39.630Z,52.83
2022-11-28T14:33:20.662Z,53.65
2022-11-28T14:35:54.151Z,57.35
2022-11-28T14:38:43.526Z,53.90
2022-11-28T14:41:19.961Z,52.55
2022-11-28T14:43:53.947Z,53.17
2022-11-28T14:46:30.197Z,52.40
2022-11-28T14:49:19.416Z,50.15
2022-11-28T14:52:15.794Z,52.60
2022-11-28T14:54:51.939Z,52.17
2022-11-28T14:57:31.265Z,54.00
2022-11-28T15:00:17.956Z,66.25
2022-11-28T15:03:07.160Z,62.22
2022-11-28T15:05:52.054Z,57.90
2022-11-28T15:08:45.785Z,57.70
2022-11-28T15:11:28.692Z,58.25
2022-11-28T15:14:17.566Z,56.90
2022-11-28T15:16:55.063Z,60.33
2022-11-28T15:19:33.594Z,61.40
2022-11-28T15:22:06.599Z,70.30
2022-11-28T15:24:39.231Z,61.75
2022-11-28T15:27:13.677Z,58.67
2022-11-28T15:29:56.769Z,45.30
2022-11-28T15:32:31.811Z,62.08
2022-11-28T15:35:13.554Z,64.68
2022-11-28T15:37:50.934Z,57.83
2022-11-28T15:40:30.188Z,60.05
2022-11-28T15:43:09.539Z,58.60
2022-11-28T15:45:52.355Z,62.13
2022-11-28T15:48:39.458Z,63.25
2022-11-28T15:51:33.855Z,61.67
2022-11-28T15:54:32.651Z,61.45
2022-11-28T15:57:06.802Z,64.38
2022-11-28T15:59:41.634Z,75.93
2022-11-28T16:02:26.735Z,76.22
2022-11-28T16:05:05.657Z,87.80
2022-11-28T16:07:44.785Z,73.70
2022-11-28T16:10:22.433Z,66.85
2022-11-28T16:13:14.891Z,72.00
2022-11-28T16:15:50.491Z,115.47
2022-11-28T16:18:26.282Z,67.22
2022-11-28T16:23:36.042Z,60.50
2022-11-28T16:26:23.429Z,61.80
2022-11-28T16:28:59.892Z,75.93
2022-11-28T16:31:33.173Z,62.25
2022-11-28T16:34:06.580Z,61.35
2022-11-28T16:36:46.190Z,65.55
2022-11-28T16:39:19.403Z,72.97
2022-11-28T16:42:06.276Z,62.33
2022-11-28T16:44:39.375Z,65.28
2022-11-28T16:47:31.024Z,63.15
2022-11-28T16:50:23.212Z,68.22
2022-11-28T16:52:59.622Z,69.68
2022-11-28T16:55:33.955Z,88.00
2022-11-28T16:58:23.846Z,69.40
2022-11-28T17:01:02.482Z,61.47
2022-11-28T17:03:53.200Z,66.05
2022-11-28T17:06:34.549Z,66.95
2022-11-28T17:09:12.498Z,72.68
2022-11-28T17:11:50.920Z,71.72
2022-11-28T17:14:23.592Z,80.28
2022-11-28T17:16:56.342Z,74.35
2022-11-28T17:19:30.875Z,78.20
2022-11-28T17:22:04.498Z,64.30
2022-11-28T17:24:38.191Z,72.75
2022-11-28T17:27:13.553Z,81.82
2022-11-28T17:29:47.303Z,69.43
2022-11-28T17:32:21.821Z,64.18
2022-11-28T17:34:54.342Z,65.90
2022-11-28T17:37:26.841Z,64.88
2022-11-28T17:40:15.469Z,66.90
2022-11-28T17:42:48.761Z,64.13
2022-11-28T17:45:23.300Z,71.57
2022-11-28T17:47:55.861Z,79.30
2022-11-28T17:50:28.854Z,69.05
2022-11-28T17:53:01.710Z,67.38
2022-11-28T17:55:34.321Z,74.53
2022-11-28T17:58:07.346Z,66.47
2022-11-28T18:00:40.517Z,63.90
2022-11-28T18:03:14.844Z,62.33
2022-11-28T18:05:50.233Z,65.43
2022-11-28T18:11:13.103Z,68.07
2022-11-28T18:13:45.974Z,69.85
2022-11-28T18:16:25.891Z,76.20
2022-11-28T18:19:00.061Z,73.13
2022-11-28T18:21:33.347Z,70.72
2022-11-28T18:24:07.004Z,81.22
2022-11-28T18:26:39.999Z,78.25
2022-11-28T18:29:13.685Z,74.53
2022-11-28T18:31:46.529Z,80.57
2022-11-28T18:34:21.746Z,75.75
2022-11-28T18:37:01.459Z,79.07
2022-11-28T18:39:36.534Z,82.90
2022-11-28T18:42:09.145Z,93.10
2022-11-28T18:44:42.351Z,86.25
2022-11-28T18:47:14.911Z,86.53
2022-11-28T18:49:47.627Z,82.70
2022-11-28T18:52:20.236Z,83.30
2022-11-28T18:54:53.678Z,87.10
2022-11-28T18:57:32.187Z,93.03
2022-11-28T19:00:06.680Z,91.10
2022-11-28T19:02:40.751Z,90.22
2022-11-28T19:05:13.461Z,93.07
2022-11-28T19:07:46.167Z,85.18
2022-11-28T19:10:18.998Z,82.63
2022-11-28T19:12:52.873Z,84.00
2022-11-28T19:15:26.271Z,84.25
2022-11-28T19:17:59.060Z,88.25
2022-11-28T19:20:31.788Z,86.18
2022-11-28T19:23:06.955Z,87.07
2022-11-28T19:28:16.149Z,83.22
2022-11-28T19:30:48.696Z,85.93
2022-11-28T19:33:22.007Z,85.72
2022-11-28T19:35:54.681Z,83.63
2022-11-28T19:38:27.371Z,87.05
2022-11-28T19:41:07.066Z,83.63
2022-11-28T19:43:40.786Z,83.65
2022-11-28T19:46:14.521Z,85.25
2022-11-28T19:48:47.223Z,83.53
2022-11-28T19:51:20.452Z,85.13
2022-11-28T19:53:56.251Z,86.00
2022-11-28T19:56:35.453Z,86.82
2022-11-28T19:59:08.512Z,85.05
2022-11-28T20:01:41.740Z,82.43
2022-11-28T20:04:15.093Z,81.50
2022-11-28T20:06:49.000Z,81.68
2022-11-28T20:09:21.602Z,81.68
2022-11-28T20:11:54.529Z,79.43
2022-11-28T20:14:31.765Z,87.40
2022-11-28T20:17:04.940Z,87.88
2022-11-28T20:19:39.197Z,89.68
2022-11-28T20:22:11.928Z,91.00
2022-11-28T20:24:44.962Z,100.40
2022-11-28T20:27:17.670Z,101.20
2022-11-28T20:29:51.133Z,118.88
2022-11-28T20:32:26.328Z,112.38
2022-11-28T20:35:02.127Z,166.18
2022-11-28T20:37:35.725Z,164.07
2022-11-28T20:40:09.736Z,123.22
2022-11-28T20:42:42.300Z,170.55
2022-11-28T20:45:14.913Z,161.60
2022-11-28T20:47:49.940Z,95.70
2022-11-28T20:50:23.196Z,86.03
2022-11-28T20:52:56.058Z,83.60
2022-11-28T20:55:28.779Z,86.43
2022-11-28T20:58:02.967Z,83.88
2022-11-28T21:00:36.022Z,82.32
2022-11-28T21:03:10.619Z,81.70
2022-11-28T21:05:43.161Z,85.20
2022-11-28T21:08:15.694Z,86.95
2022-11-28T21:10:48.493Z,88.55
2022-11-28T21:13:21.043Z,82.53
2022-11-28T21:15:53.893Z,87.70
2022-11-28T21:18:26.625Z,90.00
2022-11-28T21:20:59.280Z,93.43
2022-11-28T21:23:32.724Z,91.25
2022-11-28T21:26:08.804Z,89.63
2022-11-28T21:28:43.181Z,87.63
2022-11-28T21:31:20.824Z,85.00
2022-11-28T21:33:56.878Z,84.43
2022-11-28T21:36:30.811Z,82.80
2022-11-28T21:39:03.527Z,85.65
2022-11-28T21:41:36.086Z,85.10
2022-11-28T21:44:09.791Z,83.93
2022-11-28T21:49:08.598Z,85.40
2022-11-28T21:51:45.151Z,84.40
2022-11-28T21:54:17.795Z,82.32
2022-11-28T21:56:51.422Z,79.20
2022-11-28T21:59:24.075Z,79.43
2022-11-28T22:01:56.857Z,83.90
2022-11-28T22:04:29.570Z,84.30
2022-11-28T22:07:03.040Z,83.10
2022-11-28T22:09:36.009Z,83.28
2022-11-28T22:12:08.722Z,82.43
2022-11-28T22:14:41.817Z,85.97
2022-11-28T22:17:14.452Z,86.70
2022-11-28T22:19:47.577Z,79.43
2022-11-28T22:22:20.456Z,80.40
2022-11-28T22:24:53.091Z,81.70
2022-11-28T22:27:25.676Z,80.50
2022-11-28T22:29:59.361Z,79.22
2022-11-28T22:32:31.967Z,76.28
2022-11-28T22:35:07.546Z,79.55
2022-11-28T22:37:40.297Z,76.07
2022-11-28T22:40:13.951Z,76.63
2022-11-28T22:42:46.980Z,77.32
2022-11-28T22:45:19.692Z,77.32
2022-11-28T22:47:53.011Z,78.47
2022-11-28T22:50:25.753Z,77.40
2022-11-28T22:52:58.248Z,79.25
2022-11-28T22:55:30.833Z,77.60
2022-11-28T22:58:03.509Z,77.78
2022-11-28T23:00:37.119Z,76.47
2022-11-28T23:03:09.777Z,74.95
2022-11-28T23:05:45.390Z,73.97
2022-11-28T23:08:24.312Z,73.75
2022-11-28T23:10:57.388Z,74.57
2022-11-28T23:13:30.167Z,76.65
2022-11-28T23:16:20.861Z,75.50
2022-11-28T23:18:57.329Z,76.13
2022-11-28T23:21:35.119Z,75.55
2022-11-28T23:24:13.502Z,74.38
2022-11-28T23:26:46.698Z,72.35
2022-11-28T23:29:19.753Z,75.88
2022-11-28T23:31:54.113Z,73.72
2022-11-28T23:34:29.773Z,75.10
2022-11-28T23:37:04.580Z,75.75
2022-11-28T23:39:37.187Z,69.50
2022-11-28T23:42:11.889Z,71.60
2022-11-28T23:44:44.572Z,71.50
2022-11-28T23:47:17.367Z,72.55
2022-11-28T23:49:49.820Z,73.38
2022-11-28T23:52:22.340Z,70.30
2022-11-28T23:54:54.941Z,75.22
2022-11-28T23:57:28.480Z,71.13
